sensor_id;sensor_type;location;lat;lon;timestamp;temperature;humidity
16503;DHT22;53067;48.114;11.694;2023-05-19T00:00:41;12.10;79.10
16503;DHT22;53067;48.114;11.694;2023-05-19T00:03:10;12.00;78.90
16503;DHT22;53067;48.114;11.694;2023-05-19T00:05:48;12.00;79.10
16503;DHT22;53067;48.114;11.694;2023-05-19T00:08:30;12.00;79.10
16503;DHT22;53067;48.114;11.694;2023-05-19T00:10:58;12.00;79.10
16503;DHT22;53067;48.114;11.694;2023-05-19T00:16:15;12.10;79.50
16503;DHT22;53067;48.114;11.694;2023-05-19T00:18:43;12.00;79.30
16503;DHT22;53067;48.114;11.694;2023-05-19T00:21:10;12.00;79.70
16503;DHT22;53067;48.114;11.694;2023-05-19T00:23:38;12.00;79.70
16503;DHT22;53067;48.114;11.694;2023-05-19T00:26:06;12.00;79.70
16503;DHT22;53067;48.114;11.694;2023-05-19T00:28:33;12.00;79.70
16503;DHT22;53067;48.114;11.694;2023-05-19T00:31:01;12.10;80.00
16503;DHT22;53067;48.114;11.694;2023-05-19T00:33:29;12.00;80.10
16503;DHT22;53067;48.114;11.694;2023-05-19T00:35:56;12.00;80.20
16503;DHT22;53067;48.114;11.694;2023-05-19T00:38:24;11.90;80.40
16503;DHT22;53067;48.114;11.694;2023-05-19T00:40:51;12.00;80.40
16503;DHT22;53067;48.114;11.694;2023-05-19T00:43:19;12.00;80.60
16503;DHT22;53067;48.114;11.694;2023-05-19T00:45:47;12.00;80.60
16503;DHT22;53067;48.114;11.694;2023-05-19T00:48:15;12.00;80.50
16503;DHT22;53067;48.114;11.694;2023-05-19T00:50:43;12.00;80.60
16503;DHT22;53067;48.114;11.694;2023-05-19T00:53:12;12.10;80.80
16503;DHT22;53067;48.114;11.694;2023-05-19T00:55:41;12.00;80.60
16503;DHT22;53067;48.114;11.694;2023-05-19T00:58:28;12.00;80.70
16503;DHT22;53067;48.114;11.694;2023-05-19T01:00:58;12.00;80.60
16503;DHT22;53067;48.114;11.694;2023-05-19T01:03:30;12.00;80.70
16503;DHT22;53067;48.114;11.694;2023-05-19T01:05:58;12.00;80.90
16503;DHT22;53067;48.114;11.694;2023-05-19T01:08:31;12.00;80.80
16503;DHT22;53067;48.114;11.694;2023-05-19T01:11:00;12.00;81.00
16503;DHT22;53067;48.114;11.694;2023-05-19T01:13:28;12.00;81.10
16503;DHT22;53067;48.114;11.694;2023-05-19T01:15:59;12.00;81.10
16503;DHT22;53067;48.114;11.694;2023-05-19T01:32:22;11.90;81.40
16503;DHT22;53067;48.114;11.694;2023-05-19T01:34:50;11.90;81.70
16503;DHT22;53067;48.114;11.694;2023-05-19T01:37:20;11.90;81.80
16503;DHT22;53067;48.114;11.694;2023-05-19T01:39:49;11.90;81.90
16503;DHT22;53067;48.114;11.694;2023-05-19T01:45:07;11.90;82.00
16503;DHT22;53067;48.114;11.694;2023-05-19T01:47:41;11.90;81.90
16503;DHT22;53067;48.114;11.694;2023-05-19T01:50:09;11.90;82.10
16503;DHT22;53067;48.114;11.694;2023-05-19T01:52:37;11.90;82.20
16503;DHT22;53067;48.114;11.694;2023-05-19T01:55:07;11.90;82.20
16503;DHT22;53067;48.114;11.694;2023-05-19T01:58:14;11.90;82.20
16503;DHT22;53067;48.114;11.694;2023-05-19T02:00:52;11.90;82.30
16503;DHT22;53067;48.114;11.694;2023-05-19T02:09:05;11.90;82.60
16503;DHT22;53067;48.114;11.694;2023-05-19T02:11:36;11.90;82.70
16503;DHT22;53067;48.114;11.694;2023-05-19T02:14:13;11.90;82.80
16503;DHT22;53067;48.114;11.694;2023-05-19T02:16:46;11.80;82.90
16503;DHT22;53067;48.114;11.694;2023-05-19T02:22:11;11.80;83.00
16503;DHT22;53067;48.114;11.694;2023-05-19T02:24:39;11.80;83.30
16503;DHT22;53067;48.114;11.694;2023-05-19T02:27:06;11.80;83.30
16503;DHT22;53067;48.114;11.694;2023-05-19T02:29:34;11.80;83.10
16503;DHT22;53067;48.114;11.694;2023-05-19T02:32:02;11.80;83.30
16503;DHT22;53067;48.114;11.694;2023-05-19T02:34:29;11.80;83.10
16503;DHT22;53067;48.114;11.694;2023-05-19T02:36:57;11.80;83.30
16503;DHT22;53067;48.114;11.694;2023-05-19T02:39:24;11.80;83.10
16503;DHT22;53067;48.114;11.694;2023-05-19T02:41:52;11.80;83.10
16503;DHT22;53067;48.114;11.694;2023-05-19T02:44:19;11.80;83.10
16503;DHT22;53067;48.114;11.694;2023-05-19T02:46:47;11.80;83.10
16503;DHT22;53067;48.114;11.694;2023-05-19T02:49:14;11.80;83.10
16503;DHT22;53067;48.114;11.694;2023-05-19T02:51:42;11.80;83.10
16503;DHT22;53067;48.114;11.694;2023-05-19T02:54:09;11.80;83.20
16503;DHT22;53067;48.114;11.694;2023-05-19T02:56:37;11.80;83.30
16503;DHT22;53067;48.114;11.694;2023-05-19T02:59:04;11.80;84.10
16503;DHT22;53067;48.114;11.694;2023-05-19T03:01:32;11.80;83.50
16503;DHT22;53067;48.114;11.694;2023-05-19T03:03:59;11.80;83.50
16503;DHT22;53067;48.114;11.694;2023-05-19T03:06:27;11.80;83.30
16503;DHT22;53067;48.114;11.694;2023-05-19T03:08:54;11.80;83.40
16503;DHT22;53067;48.114;11.694;2023-05-19T03:11:22;11.80;83.70
16503;DHT22;53067;48.114;11.694;2023-05-19T03:13:49;11.80;83.30
16503;DHT22;53067;48.114;11.694;2023-05-19T03:16:17;11.80;83.10
16503;DHT22;53067;48.114;11.694;2023-05-19T03:18:45;11.80;83.50
16503;DHT22;53067;48.114;11.694;2023-05-19T03:21:13;11.80;83.50
16503;DHT22;53067;48.114;11.694;2023-05-19T03:23:40;11.80;83.70
16503;DHT22;53067;48.114;11.694;2023-05-19T03:26:08;11.80;83.70
16503;DHT22;53067;48.114;11.694;2023-05-19T03:28:36;11.70;83.60
16503;DHT22;53067;48.114;11.694;2023-05-19T03:31:03;11.80;83.60
16503;DHT22;53067;48.114;11.694;2023-05-19T03:33:31;11.80;83.80
16503;DHT22;53067;48.114;11.694;2023-05-19T03:35:58;11.80;83.60
16503;DHT22;53067;48.114;11.694;2023-05-19T03:38:26;11.80;83.50
16503;DHT22;53067;48.114;11.694;2023-05-19T03:40:53;11.80;84.30
16503;DHT22;53067;48.114;11.694;2023-05-19T03:43:21;11.70;83.60
16503;DHT22;53067;48.114;11.694;2023-05-19T03:45:49;11.70;83.70
16503;DHT22;53067;48.114;11.694;2023-05-19T03:48:16;11.70;83.70
16503;DHT22;53067;48.114;11.694;2023-05-19T03:50:44;11.80;83.80
16503;DHT22;53067;48.114;11.694;2023-05-19T03:53:11;11.80;84.00
16503;DHT22;53067;48.114;11.694;2023-05-19T03:55:39;11.80;83.90
16503;DHT22;53067;48.114;11.694;2023-05-19T03:58:06;11.80;83.90
16503;DHT22;53067;48.114;11.694;2023-05-19T04:00:36;11.80;84.10
16503;DHT22;53067;48.114;11.694;2023-05-19T04:03:03;11.80;84.20
16503;DHT22;53067;48.114;11.694;2023-05-19T04:05:31;11.80;84.20
16503;DHT22;53067;48.114;11.694;2023-05-19T04:07:58;11.70;84.20
16503;DHT22;53067;48.114;11.694;2023-05-19T04:10:26;11.80;84.20
16503;DHT22;53067;48.114;11.694;2023-05-19T04:12:53;11.80;84.30
16503;DHT22;53067;48.114;11.694;2023-05-19T04:15:21;11.80;85.10
16503;DHT22;53067;48.114;11.694;2023-05-19T04:17:49;11.80;84.30
16503;DHT22;53067;48.114;11.694;2023-05-19T04:20:35;11.80;84.30
16503;DHT22;53067;48.114;11.694;2023-05-19T04:23:03;11.90;84.20
16503;DHT22;53067;48.114;11.694;2023-05-19T04:25:30;11.80;84.20
16503;DHT22;53067;48.114;11.694;2023-05-19T04:27:59;11.80;84.50
16503;DHT22;53067;48.114;11.694;2023-05-19T04:30:26;11.80;84.50
16503;DHT22;53067;48.114;11.694;2023-05-19T04:32:54;11.80;84.40
16503;DHT22;53067;48.114;11.694;2023-05-19T04:35:23;11.90;84.70
16503;DHT22;53067;48.114;11.694;2023-05-19T04:38:13;11.90;84.60
16503;DHT22;53067;48.114;11.694;2023-05-19T04:40:42;11.90;84.40
16503;DHT22;53067;48.114;11.694;2023-05-19T04:43:10;12.00;84.20
16503;DHT22;53067;48.114;11.694;2023-05-19T04:45:37;11.90;84.30
16503;DHT22;53067;48.114;11.694;2023-05-19T04:48:06;11.90;84.20
16503;DHT22;53067;48.114;11.694;2023-05-19T04:50:34;12.00;84.40
16503;DHT22;53067;48.114;11.694;2023-05-19T04:53:03;12.00;84.50
16503;DHT22;53067;48.114;11.694;2023-05-19T04:55:30;12.00;84.40
16503;DHT22;53067;48.114;11.694;2023-05-19T04:57:58;12.00;84.40
16503;DHT22;53067;48.114;11.694;2023-05-19T05:00:26;12.00;84.00
16503;DHT22;53067;48.114;11.694;2023-05-19T05:02:53;12.10;85.10
16503;DHT22;53067;48.114;11.694;2023-05-19T05:05:23;12.10;84.20
16503;DHT22;53067;48.114;11.694;2023-05-19T05:07:50;12.10;84.20
16503;DHT22;53067;48.114;11.694;2023-05-19T05:10:19;12.10;84.00
16503;DHT22;53067;48.114;11.694;2023-05-19T05:12:47;12.10;83.90
16503;DHT22;53067;48.114;11.694;2023-05-19T05:15:15;12.10;84.00
16503;DHT22;53067;48.114;11.694;2023-05-19T05:17:43;12.20;83.90
16503;DHT22;53067;48.114;11.694;2023-05-19T05:20:12;12.20;83.70
16503;DHT22;53067;48.114;11.694;2023-05-19T05:22:40;12.20;83.40
16503;DHT22;53067;48.114;11.694;2023-05-19T05:25:09;12.10;83.30
16503;DHT22;53067;48.114;11.694;2023-05-19T05:27:36;12.10;83.30
16503;DHT22;53067;48.114;11.694;2023-05-19T05:30:05;12.10;83.20
16503;DHT22;53067;48.114;11.694;2023-05-19T05:32:32;12.20;83.40
16503;DHT22;53067;48.114;11.694;2023-05-19T05:35:00;12.20;82.90
16503;DHT22;53067;48.114;11.694;2023-05-19T05:37:29;12.20;83.00
16503;DHT22;53067;48.114;11.694;2023-05-19T05:39:56;12.20;83.10
16503;DHT22;53067;48.114;11.694;2023-05-19T05:42:24;12.20;82.70
16503;DHT22;53067;48.114;11.694;2023-05-19T05:44:51;12.20;82.90
16503;DHT22;53067;48.114;11.694;2023-05-19T05:47:19;12.10;82.50
16503;DHT22;53067;48.114;11.694;2023-05-19T05:49:47;12.10;82.50
16503;DHT22;53067;48.114;11.694;2023-05-19T05:52:15;12.20;82.70
16503;DHT22;53067;48.114;11.694;2023-05-19T05:54:44;12.30;82.50
16503;DHT22;53067;48.114;11.694;2023-05-19T05:57:12;12.30;82.60
16503;DHT22;53067;48.114;11.694;2023-05-19T05:59:40;12.30;82.70
16503;DHT22;53067;48.114;11.694;2023-05-19T06:02:08;12.40;82.70
16503;DHT22;53067;48.114;11.694;2023-05-19T06:04:36;12.40;82.40
16503;DHT22;53067;48.114;11.694;2023-05-19T06:07:03;12.40;81.40
16503;DHT22;53067;48.114;11.694;2023-05-19T06:09:31;12.40;81.90
16503;DHT22;53067;48.114;11.694;2023-05-19T06:11:59;12.50;81.80
16503;DHT22;53067;48.114;11.694;2023-05-19T06:14:26;12.60;81.40
16503;DHT22;53067;48.114;11.694;2023-05-19T06:16:54;12.60;80.70
16503;DHT22;53067;48.114;11.694;2023-05-19T06:19:21;12.70;80.00
16503;DHT22;53067;48.114;11.694;2023-05-19T06:21:51;12.70;79.60
16503;DHT22;53067;48.114;11.694;2023-05-19T06:24:18;12.60;79.70
16503;DHT22;53067;48.114;11.694;2023-05-19T06:26:46;12.70;79.90
16503;DHT22;53067;48.114;11.694;2023-05-19T06:29:13;12.80;80.40
16503;DHT22;53067;48.114;11.694;2023-05-19T06:31:42;12.80;80.00
16503;DHT22;53067;48.114;11.694;2023-05-19T06:34:10;12.90;79.40
16503;DHT22;53067;48.114;11.694;2023-05-19T06:36:39;12.80;78.80
16503;DHT22;53067;48.114;11.694;2023-05-19T06:39:06;12.90;79.50
16503;DHT22;53067;48.114;11.694;2023-05-19T06:41:34;12.90;79.30
16503;DHT22;53067;48.114;11.694;2023-05-19T06:44:03;13.00;79.60
16503;DHT22;53067;48.114;11.694;2023-05-19T06:46:30;13.00;79.60
16503;DHT22;53067;48.114;11.694;2023-05-19T06:48:58;13.10;79.70
16503;DHT22;53067;48.114;11.694;2023-05-19T06:51:26;13.20;79.00
16503;DHT22;53067;48.114;11.694;2023-05-19T06:53:53;13.30;79.00
16503;DHT22;53067;48.114;11.694;2023-05-19T06:56:21;13.40;78.10
16503;DHT22;53067;48.114;11.694;2023-05-19T06:58:48;13.50;78.00
16503;DHT22;53067;48.114;11.694;2023-05-19T07:01:16;13.50;77.90
16503;DHT22;53067;48.114;11.694;2023-05-19T07:03:43;13.60;78.40
16503;DHT22;53067;48.114;11.694;2023-05-19T07:06:12;13.70;77.50
16503;DHT22;53067;48.114;11.694;2023-05-19T07:08:39;13.80;76.80
16503;DHT22;53067;48.114;11.694;2023-05-19T07:11:07;13.90;76.50
16503;DHT22;53067;48.114;11.694;2023-05-19T07:13:34;14.00;75.90
16503;DHT22;53067;48.114;11.694;2023-05-19T07:16:02;14.10;76.10
16503;DHT22;53067;48.114;11.694;2023-05-19T07:18:29;14.10;76.00
16503;DHT22;53067;48.114;11.694;2023-05-19T07:20:57;14.20;75.20
16503;DHT22;53067;48.114;11.694;2023-05-19T07:23:25;14.30;76.00
16503;DHT22;53067;48.114;11.694;2023-05-19T07:25:55;14.40;74.30
16503;DHT22;53067;48.114;11.694;2023-05-19T07:28:24;14.50;74.80
16503;DHT22;53067;48.114;11.694;2023-05-19T07:30:52;14.60;73.70
16503;DHT22;53067;48.114;11.694;2023-05-19T07:33:19;14.60;73.80
16503;DHT22;53067;48.114;11.694;2023-05-19T07:35:47;14.60;74.00
16503;DHT22;53067;48.114;11.694;2023-05-19T07:38:15;14.60;74.40
16503;DHT22;53067;48.114;11.694;2023-05-19T07:40:42;14.70;74.80
16503;DHT22;53067;48.114;11.694;2023-05-19T07:43:10;14.90;73.40
16503;DHT22;53067;48.114;11.694;2023-05-19T07:45:37;15.00;73.00
16503;DHT22;53067;48.114;11.694;2023-05-19T07:48:05;15.00;73.50
16503;DHT22;53067;48.114;11.694;2023-05-19T07:50:33;15.10;72.40
16503;DHT22;53067;48.114;11.694;2023-05-19T07:53:01;15.10;73.20
16503;DHT22;53067;48.114;11.694;2023-05-19T07:55:28;15.20;73.30
16503;DHT22;53067;48.114;11.694;2023-05-19T07:57:56;15.30;72.40
16503;DHT22;53067;48.114;11.694;2023-05-19T08:00:23;15.30;71.80
16503;DHT22;53067;48.114;11.694;2023-05-19T08:02:51;15.40;72.00
16503;DHT22;53067;48.114;11.694;2023-05-19T08:05:19;15.30;71.80
16503;DHT22;53067;48.114;11.694;2023-05-19T08:07:46;15.20;72.20
16503;DHT22;53067;48.114;11.694;2023-05-19T08:10:14;15.20;72.40
16503;DHT22;53067;48.114;11.694;2023-05-19T08:12:41;15.20;72.70
16503;DHT22;53067;48.114;11.694;2023-05-19T08:15:11;15.20;72.60
16503;DHT22;53067;48.114;11.694;2023-05-19T08:17:38;15.10;71.90
16503;DHT22;53067;48.114;11.694;2023-05-19T08:20:06;15.10;72.20
16503;DHT22;53067;48.114;11.694;2023-05-19T08:22:36;15.00;72.40
16503;DHT22;53067;48.114;11.694;2023-05-19T08:25:03;15.00;73.00
16503;DHT22;53067;48.114;11.694;2023-05-19T08:27:39;15.00;73.00
16503;DHT22;53067;48.114;11.694;2023-05-19T08:30:08;15.00;73.40
16503;DHT22;53067;48.114;11.694;2023-05-19T08:32:35;14.90;73.30
16503;DHT22;53067;48.114;11.694;2023-05-19T08:35:03;14.90;72.90
16503;DHT22;53067;48.114;11.694;2023-05-19T08:37:31;14.80;73.50
16503;DHT22;53067;48.114;11.694;2023-05-19T08:39:59;14.80;73.50
16503;DHT22;53067;48.114;11.694;2023-05-19T08:42:26;14.70;73.50
16503;DHT22;53067;48.114;11.694;2023-05-19T08:44:54;14.80;73.90
16503;DHT22;53067;48.114;11.694;2023-05-19T08:47:21;14.70;73.30
16503;DHT22;53067;48.114;11.694;2023-05-19T08:50:02;14.60;73.90
16503;DHT22;53067;48.114;11.694;2023-05-19T08:52:46;14.60;74.10
16503;DHT22;53067;48.114;11.694;2023-05-19T08:55:32;14.60;74.50
16503;DHT22;53067;48.114;11.694;2023-05-19T08:58:05;14.50;74.20
16503;DHT22;53067;48.114;11.694;2023-05-19T09:00:33;14.50;74.50
16503;DHT22;53067;48.114;11.694;2023-05-19T09:03:01;14.50;74.40
16503;DHT22;53067;48.114;11.694;2023-05-19T09:05:31;14.50;74.90
16503;DHT22;53067;48.114;11.694;2023-05-19T09:07:58;14.50;74.60
16503;DHT22;53067;48.114;11.694;2023-05-19T09:10:30;14.50;74.70
16503;DHT22;53067;48.114;11.694;2023-05-19T09:12:57;14.40;74.50
16503;DHT22;53067;48.114;11.694;2023-05-19T09:15:32;14.50;75.10
16503;DHT22;53067;48.114;11.694;2023-05-19T09:18:09;14.50;75.70
16503;DHT22;53067;48.114;11.694;2023-05-19T09:20:39;14.50;74.50
16503;DHT22;53067;48.114;11.694;2023-05-19T09:23:10;14.60;74.40
16503;DHT22;53067;48.114;11.694;2023-05-19T09:25:36;14.60;74.50
16503;DHT22;53067;48.114;11.694;2023-05-19T09:28:07;14.60;74.00
16503;DHT22;53067;48.114;11.694;2023-05-19T09:30:34;14.60;74.10
16503;DHT22;53067;48.114;11.694;2023-05-19T09:33:02;14.60;74.20
16503;DHT22;53067;48.114;11.694;2023-05-19T09:35:33;14.70;73.90
16503;DHT22;53067;48.114;11.694;2023-05-19T09:38:02;14.80;73.90
16503;DHT22;53067;48.114;11.694;2023-05-19T09:40:31;14.80;73.30
16503;DHT22;53067;48.114;11.694;2023-05-19T09:42:59;14.80;73.50
16503;DHT22;53067;48.114;11.694;2023-05-19T09:45:28;14.80;73.60
16503;DHT22;53067;48.114;11.694;2023-05-19T09:47:56;14.80;74.00
16503;DHT22;53067;48.114;11.694;2023-05-19T09:50:25;14.80;74.10
16503;DHT22;53067;48.114;11.694;2023-05-19T09:52:54;14.80;74.00
16503;DHT22;53067;48.114;11.694;2023-05-19T09:55:27;14.80;74.60
16503;DHT22;53067;48.114;11.694;2023-05-19T09:57:55;14.80;74.30
16503;DHT22;53067;48.114;11.694;2023-05-19T10:00:23;14.90;74.50
16503;DHT22;53067;48.114;11.694;2023-05-19T10:02:50;14.90;74.40
16503;DHT22;53067;48.114;11.694;2023-05-19T10:05:19;14.80;73.40
16503;DHT22;53067;48.114;11.694;2023-05-19T10:07:49;14.80;74.20
16503;DHT22;53067;48.114;11.694;2023-05-19T10:10:17;14.80;73.90
16503;DHT22;53067;48.114;11.694;2023-05-19T10:12:49;14.70;73.80
16503;DHT22;53067;48.114;11.694;2023-05-19T10:15:17;14.70;74.20
16503;DHT22;53067;48.114;11.694;2023-05-19T10:17:47;14.70;73.90
16503;DHT22;53067;48.114;11.694;2023-05-19T10:20:16;14.80;74.00
16503;DHT22;53067;48.114;11.694;2023-05-19T10:22:45;14.80;74.00
16503;DHT22;53067;48.114;11.694;2023-05-19T10:25:13;14.90;74.00
16503;DHT22;53067;48.114;11.694;2023-05-19T10:27:57;14.90;73.50
16503;DHT22;53067;48.114;11.694;2023-05-19T10:30:33;14.90;73.90
16503;DHT22;53067;48.114;11.694;2023-05-19T10:33:02;15.00;73.10
16503;DHT22;53067;48.114;11.694;2023-05-19T10:35:41;15.00;73.50
16503;DHT22;53067;48.114;11.694;2023-05-19T10:38:26;15.00;72.80
16503;DHT22;53067;48.114;11.694;2023-05-19T10:41:30;15.00;73.30
16503;DHT22;53067;48.114;11.694;2023-05-19T10:44:19;15.10;73.50
16503;DHT22;53067;48.114;11.694;2023-05-19T10:46:44;15.20;74.20
16503;DHT22;53067;48.114;11.694;2023-05-19T10:52:00;15.30;73.10
16503;DHT22;53067;48.114;11.694;2023-05-19T10:54:43;15.40;72.60
16503;DHT22;53067;48.114;11.694;2023-05-19T10:57:15;15.40;72.80
16503;DHT22;53067;48.114;11.694;2023-05-19T10:59:43;15.40;72.40
16503;DHT22;53067;48.114;11.694;2023-05-19T11:02:35;15.40;72.50
16503;DHT22;53067;48.114;11.694;2023-05-19T11:04:48;15.50;72.30
16503;DHT22;53067;48.114;11.694;2023-05-19T11:07:20;15.40;72.30
16503;DHT22;53067;48.114;11.694;2023-05-19T11:09:51;15.30;72.40
16503;DHT22;53067;48.114;11.694;2023-05-19T11:12:22;15.30;72.70
16503;DHT22;53067;48.114;11.694;2023-05-19T11:14:53;15.30;72.60
16503;DHT22;53067;48.114;11.694;2023-05-19T11:17:23;15.30;73.00
16503;DHT22;53067;48.114;11.694;2023-05-19T11:19:56;15.20;73.00
16503;DHT22;53067;48.114;11.694;2023-05-19T11:22:26;15.30;73.30
16503;DHT22;53067;48.114;11.694;2023-05-19T11:24:54;15.30;73.10
16503;DHT22;53067;48.114;11.694;2023-05-19T11:27:27;15.30;72.90
16503;DHT22;53067;48.114;11.694;2023-05-19T11:30:07;15.40;73.20
16503;DHT22;53067;48.114;11.694;2023-05-19T11:32:33;15.30;72.80
16503;DHT22;53067;48.114;11.694;2023-05-19T11:35:01;15.30;72.90
16503;DHT22;53067;48.114;11.694;2023-05-19T11:37:31;15.30;72.60
16503;DHT22;53067;48.114;11.694;2023-05-19T11:40:06;15.30;73.40
16503;DHT22;53067;48.114;11.694;2023-05-19T11:42:32;15.40;73.30
16503;DHT22;53067;48.114;11.694;2023-05-19T11:45:00;15.50;73.60
16503;DHT22;53067;48.114;11.694;2023-05-19T11:47:29;15.50;73.30
16503;DHT22;53067;48.114;11.694;2023-05-19T11:49:59;15.60;72.90
16503;DHT22;53067;48.114;11.694;2023-05-19T11:52:27;15.60;72.30
16503;DHT22;53067;48.114;11.694;2023-05-19T11:54:54;15.70;72.30
16503;DHT22;53067;48.114;11.694;2023-05-19T11:57:23;15.70;72.30
16503;DHT22;53067;48.114;11.694;2023-05-19T11:59:51;15.70;71.70
16503;DHT22;53067;48.114;11.694;2023-05-19T12:02:24;15.70;71.80
16503;DHT22;53067;48.114;11.694;2023-05-19T12:04:53;15.70;72.20
16503;DHT22;53067;48.114;11.694;2023-05-19T12:07:24;15.80;72.00
16503;DHT22;53067;48.114;11.694;2023-05-19T12:09:53;15.80;72.80
16503;DHT22;53067;48.114;11.694;2023-05-19T12:12:21;15.80;71.70
16503;DHT22;53067;48.114;11.694;2023-05-19T12:14:50;15.80;71.40
16503;DHT22;53067;48.114;11.694;2023-05-19T12:17:20;15.70;71.40
16503;DHT22;53067;48.114;11.694;2023-05-19T12:19:50;15.80;71.60
16503;DHT22;53067;48.114;11.694;2023-05-19T12:22:18;15.80;71.50
16503;DHT22;53067;48.114;11.694;2023-05-19T12:24:46;15.70;71.60
16503;DHT22;53067;48.114;11.694;2023-05-19T12:27:19;15.70;72.00
16503;DHT22;53067;48.114;11.694;2023-05-19T12:29:50;15.60;71.70
16503;DHT22;53067;48.114;11.694;2023-05-19T12:32:22;15.60;72.20
16503;DHT22;53067;48.114;11.694;2023-05-19T12:34:47;15.50;72.30
16503;DHT22;53067;48.114;11.694;2023-05-19T12:37:16;15.40;72.50
16503;DHT22;53067;48.114;11.694;2023-05-19T12:39:44;15.40;72.70
16503;DHT22;53067;48.114;11.694;2023-05-19T12:42:12;15.40;72.80
16503;DHT22;53067;48.114;11.694;2023-05-19T12:44:48;15.40;73.40
16503;DHT22;53067;48.114;11.694;2023-05-19T12:47:18;15.40;73.00
16503;DHT22;53067;48.114;11.694;2023-05-19T12:50:07;15.40;73.00
16503;DHT22;53067;48.114;11.694;2023-05-19T12:52:44;15.50;73.00
16503;DHT22;53067;48.114;11.694;2023-05-19T12:55:12;15.40;72.50
16503;DHT22;53067;48.114;11.694;2023-05-19T12:57:43;15.40;72.70
16503;DHT22;53067;48.114;11.694;2023-05-19T13:00:16;15.40;73.00
16503;DHT22;53067;48.114;11.694;2023-05-19T13:03:08;15.60;73.00
16503;DHT22;53067;48.114;11.694;2023-05-19T13:05:35;15.70;72.70
16503;DHT22;53067;48.114;11.694;2023-05-19T13:08:08;15.80;71.50
16503;DHT22;53067;48.114;11.694;2023-05-19T13:10:37;16.00;71.70
16503;DHT22;53067;48.114;11.694;2023-05-19T13:13:06;16.10;71.40
16503;DHT22;53067;48.114;11.694;2023-05-19T13:15:37;16.30;70.60
16503;DHT22;53067;48.114;11.694;2023-05-19T13:20:53;16.50;71.50
16503;DHT22;53067;48.114;11.694;2023-05-19T13:23:20;16.60;70.10
16503;DHT22;53067;48.114;11.694;2023-05-19T13:25:49;16.70;70.10
16503;DHT22;53067;48.114;11.694;2023-05-19T13:28:16;16.70;70.80
16503;DHT22;53067;48.114;11.694;2023-05-19T13:30:44;17.00;70.20
16503;DHT22;53067;48.114;11.694;2023-05-19T13:33:12;17.20;70.20
16503;DHT22;53067;48.114;11.694;2023-05-19T13:35:39;17.40;68.80
16503;DHT22;53067;48.114;11.694;2023-05-19T13:38:08;17.50;67.80
16503;DHT22;53067;48.114;11.694;2023-05-19T13:40:36;17.60;67.60
16503;DHT22;53067;48.114;11.694;2023-05-19T13:43:11;17.70;66.60
16503;DHT22;53067;48.114;11.694;2023-05-19T13:45:38;17.90;66.30
16503;DHT22;53067;48.114;11.694;2023-05-19T13:48:08;17.90;65.30
16503;DHT22;53067;48.114;11.694;2023-05-19T13:50:37;18.00;65.50
16503;DHT22;53067;48.114;11.694;2023-05-19T13:53:04;17.90;64.40
16503;DHT22;53067;48.114;11.694;2023-05-19T13:55:32;18.00;65.50
16503;DHT22;53067;48.114;11.694;2023-05-19T13:58:00;18.00;65.20
16503;DHT22;53067;48.114;11.694;2023-05-19T14:00:28;18.00;65.30
16503;DHT22;53067;48.114;11.694;2023-05-19T14:02:56;17.90;65.20
16503;DHT22;53067;48.114;11.694;2023-05-19T14:05:24;17.80;65.50
16503;DHT22;53067;48.114;11.694;2023-05-19T14:07:53;17.80;65.50
16503;DHT22;53067;48.114;11.694;2023-05-19T14:10:21;17.80;65.70
16503;DHT22;53067;48.114;11.694;2023-05-19T14:12:49;17.80;65.70
16503;DHT22;53067;48.114;11.694;2023-05-19T14:15:18;17.60;65.90
16503;DHT22;53067;48.114;11.694;2023-05-19T14:17:46;17.60;66.00
16503;DHT22;53067;48.114;11.694;2023-05-19T14:20:14;17.60;67.20
16503;DHT22;53067;48.114;11.694;2023-05-19T14:22:41;17.70;67.00
16503;DHT22;53067;48.114;11.694;2023-05-19T14:25:09;17.60;66.50
16503;DHT22;53067;48.114;11.694;2023-05-19T14:27:37;17.70;65.70
16503;DHT22;53067;48.114;11.694;2023-05-19T14:30:06;17.70;66.00
16503;DHT22;53067;48.114;11.694;2023-05-19T14:32:33;17.70;66.70
16503;DHT22;53067;48.114;11.694;2023-05-19T14:35:01;17.70;66.40
16503;DHT22;53067;48.114;11.694;2023-05-19T14:37:29;17.70;66.40
16503;DHT22;53067;48.114;11.694;2023-05-19T14:39:57;17.60;66.80
16503;DHT22;53067;48.114;11.694;2023-05-19T14:42:25;17.60;67.00
16503;DHT22;53067;48.114;11.694;2023-05-19T14:44:52;17.60;67.00
16503;DHT22;53067;48.114;11.694;2023-05-19T14:47:20;17.60;68.10
16503;DHT22;53067;48.114;11.694;2023-05-19T14:49:47;17.60;67.70
16503;DHT22;53067;48.114;11.694;2023-05-19T14:52:15;17.50;68.00
16503;DHT22;53067;48.114;11.694;2023-05-19T14:54:44;17.40;67.80
16503;DHT22;53067;48.114;11.694;2023-05-19T14:57:11;17.40;67.90
16503;DHT22;53067;48.114;11.694;2023-05-19T14:59:39;17.30;68.20
16503;DHT22;53067;48.114;11.694;2023-05-19T15:02:06;17.30;68.20
16503;DHT22;53067;48.114;11.694;2023-05-19T15:04:34;17.30;68.80
16503;DHT22;53067;48.114;11.694;2023-05-19T15:07:01;17.30;69.00
16503;DHT22;53067;48.114;11.694;2023-05-19T15:09:29;17.40;69.00
16503;DHT22;53067;48.114;11.694;2023-05-19T15:11:57;17.40;68.90
16503;DHT22;53067;48.114;11.694;2023-05-19T15:14:26;17.30;69.60
16503;DHT22;53067;48.114;11.694;2023-05-19T15:16:54;17.40;69.20
16503;DHT22;53067;48.114;11.694;2023-05-19T15:19:21;17.40;68.70
16503;DHT22;53067;48.114;11.694;2023-05-19T15:21:49;17.40;69.20
16503;DHT22;53067;48.114;11.694;2023-05-19T15:24:16;17.50;69.50
16503;DHT22;53067;48.114;11.694;2023-05-19T15:26:44;17.60;69.00
16503;DHT22;53067;48.114;11.694;2023-05-19T15:29:12;17.70;68.80
16503;DHT22;53067;48.114;11.694;2023-05-19T15:31:40;17.70;68.20
16503;DHT22;53067;48.114;11.694;2023-05-19T15:34:08;17.70;69.00
16503;DHT22;53067;48.114;11.694;2023-05-19T15:36:35;17.70;69.40
16503;DHT22;53067;48.114;11.694;2023-05-19T15:39:03;17.70;69.40
16503;DHT22;53067;48.114;11.694;2023-05-19T15:41:31;17.70;68.80
16503;DHT22;53067;48.114;11.694;2023-05-19T15:44:01;17.70;68.60
16503;DHT22;53067;48.114;11.694;2023-05-19T15:46:29;17.60;69.40
16503;DHT22;53067;48.114;11.694;2023-05-19T15:48:56;17.70;69.70
16503;DHT22;53067;48.114;11.694;2023-05-19T15:51:24;17.70;69.70
16503;DHT22;53067;48.114;11.694;2023-05-19T15:53:52;17.70;69.60
16503;DHT22;53067;48.114;11.694;2023-05-19T15:56:20;17.70;69.80
16503;DHT22;53067;48.114;11.694;2023-05-19T15:58:48;17.70;69.70
16503;DHT22;53067;48.114;11.694;2023-05-19T16:01:17;17.70;69.80